sensor_id;sensor_type;location;lat;lon;timestamp;temperature;humidity
5286;DHT22;2665;53.112;7.358;2023-02-12T00:01:12;6.70;99.90
5286;DHT22;2665;53.112;7.358;2023-02-12T00:03:39;6.70;99.90
5286;DHT22;2665;53.112;7.358;2023-02-12T00:06:05;6.70;99.90
5286;DHT22;2665;53.112;7.358;2023-02-12T00:08:31;6.70;72.10
5286;DHT22;2665;53.112;7.358;2023-02-12T00:10:57;6.70;1.00
5286;DHT22;2665;53.112;7.358;2023-02-12T00:13:23;6.70;1.00
5286;DHT22;2665;53.112;7.358;2023-02-12T00:15:49;6.70;1.00
5286;DHT22;2665;53.112;7.358;2023-02-12T00:18:14;6.70;1.00
5286;DHT22;2665;53.112;7.358;2023-02-12T00:20:40;6.70;1.00
5286;DHT22;2665;53.112;7.358;2023-02-12T00:23:06;6.70;1.00
5286;DHT22;2665;53.112;7.358;2023-02-12T00:25:32;6.70;1.00
5286;DHT22;2665;53.112;7.358;2023-02-12T00:27:58;6.70;1.00
5286;DHT22;2665;53.112;7.358;2023-02-12T00:30:24;6.70;1.00
5286;DHT22;2665;53.112;7.358;2023-02-12T00:32:49;6.70;1.00
5286;DHT22;2665;53.112;7.358;2023-02-12T00:35:15;6.60;1.00
5286;DHT22;2665;53.112;7.358;2023-02-12T00:37:41;6.60;1.00
5286;DHT22;2665;53.112;7.358;2023-02-12T00:40:07;6.60;1.00
5286;DHT22;2665;53.112;7.358;2023-02-12T00:42:32;6.60;1.00
5286;DHT22;2665;53.112;7.358;2023-02-12T00:44:58;6.60;1.00
5286;DHT22;2665;53.112;7.358;2023-02-12T00:47:24;6.60;1.00
5286;DHT22;2665;53.112;7.358;2023-02-12T00:49:49;6.60;1.00
5286;DHT22;2665;53.112;7.358;2023-02-12T00:52:15;6.60;1.00
5286;DHT22;2665;53.112;7.358;2023-02-12T00:54:41;6.60;1.00
5286;DHT22;2665;53.112;7.358;2023-02-12T00:57:06;6.60;1.00
5286;DHT22;2665;53.112;7.358;2023-02-12T00:59:32;6.60;1.00
5286;DHT22;2665;53.112;7.358;2023-02-12T01:02:00;6.60;1.00
5286;DHT22;2665;53.112;7.358;2023-02-12T01:04:26;6.60;1.00
5286;DHT22;2665;53.112;7.358;2023-02-12T01:06:52;6.60;1.00
5286;DHT22;2665;53.112;7.358;2023-02-12T01:09:17;6.60;1.00
5286;DHT22;2665;53.112;7.358;2023-02-12T01:11:43;6.60;24.20
5286;DHT22;2665;53.112;7.358;2023-02-12T01:14:08;6.50;24.40
5286;DHT22;2665;53.112;7.358;2023-02-12T01:16:35;6.60;93.40
5286;DHT22;2665;53.112;7.358;2023-02-12T01:19:02;6.60;94.60
5286;DHT22;2665;53.112;7.358;2023-02-12T01:21:30;6.50;59.60
5286;DHT22;2665;53.112;7.358;2023-02-12T01:23:57;6.50;99.90
5286;DHT22;2665;53.112;7.358;2023-02-12T01:26:23;6.50;99.90
5286;DHT22;2665;53.112;7.358;2023-02-12T01:29:00;6.50;99.90
5286;DHT22;2665;53.112;7.358;2023-02-12T01:31:28;6.50;99.90
5286;DHT22;2665;53.112;7.358;2023-02-12T01:33:56;6.50;99.90
5286;DHT22;2665;53.112;7.358;2023-02-12T01:36:23;6.50;99.90
5286;DHT22;2665;53.112;7.358;2023-02-12T01:38:49;6.50;99.90
5286;DHT22;2665;53.112;7.358;2023-02-12T01:41:25;6.50;99.90
5286;DHT22;2665;53.112;7.358;2023-02-12T01:44:18;6.50;99.90
5286;DHT22;2665;53.112;7.358;2023-02-12T01:46:46;6.50;99.90
5286;DHT22;2665;53.112;7.358;2023-02-12T01:49:36;6.50;99.90
5286;DHT22;2665;53.112;7.358;2023-02-12T01:52:14;6.50;99.90
5286;DHT22;2665;53.112;7.358;2023-02-12T01:55:00;6.60;99.90
5286;DHT22;2665;53.112;7.358;2023-02-12T01:57:31;6.50;99.90
5286;DHT22;2665;53.112;7.358;2023-02-12T01:59:58;6.50;99.90
5286;DHT22;2665;53.112;7.358;2023-02-12T02:02:24;6.50;99.90
5286;DHT22;2665;53.112;7.358;2023-02-12T02:04:55;6.50;99.90
5286;DHT22;2665;53.112;7.358;2023-02-12T02:07:22;6.50;99.90
5286;DHT22;2665;53.112;7.358;2023-02-12T02:09:47;6.50;99.90
5286;DHT22;2665;53.112;7.358;2023-02-12T02:12:14;6.50;99.90
5286;DHT22;2665;53.112;7.358;2023-02-12T02:14:58;6.50;99.90
5286;DHT22;2665;53.112;7.358;2023-02-12T02:23:44;6.50;99.90
5286;DHT22;2665;53.112;7.358;2023-02-12T02:31:34;6.50;99.90
5286;DHT22;2665;53.112;7.358;2023-02-12T02:39:37;6.50;99.90
5286;DHT22;2665;53.112;7.358;2023-02-12T02:42:34;6.50;99.90
5286;DHT22;2665;53.112;7.358;2023-02-12T02:47:57;6.50;99.90
5286;DHT22;2665;53.112;7.358;2023-02-12T02:50:26;6.50;99.90
5286;DHT22;2665;53.112;7.358;2023-02-12T02:52:59;6.50;99.90
5286;DHT22;2665;53.112;7.358;2023-02-12T02:55:29;6.50;99.90
5286;DHT22;2665;53.112;7.358;2023-02-12T02:58:08;6.50;99.90
5286;DHT22;2665;53.112;7.358;2023-02-12T03:00:43;6.50;99.90
5286;DHT22;2665;53.112;7.358;2023-02-12T03:03:21;6.50;99.90
5286;DHT22;2665;53.112;7.358;2023-02-12T03:05:49;6.50;99.90
5286;DHT22;2665;53.112;7.358;2023-02-12T03:08:27;6.50;99.90
5286;DHT22;2665;53.112;7.358;2023-02-12T03:11:01;6.50;99.90
5286;DHT22;2665;53.112;7.358;2023-02-12T03:14:04;6.50;99.90
5286;DHT22;2665;53.112;7.358;2023-02-12T03:16:39;6.50;99.90
5286;DHT22;2665;53.112;7.358;2023-02-12T03:19:21;6.50;99.90
5286;DHT22;2665;53.112;7.358;2023-02-12T03:22:00;6.50;99.90
5286;DHT22;2665;53.112;7.358;2023-02-12T03:24:35;6.40;99.90
5286;DHT22;2665;53.112;7.358;2023-02-12T03:27:03;6.40;99.90
5286;DHT22;2665;53.112;7.358;2023-02-12T03:29:31;6.40;99.90
5286;DHT22;2665;53.112;7.358;2023-02-12T03:37:28;6.50;99.90
5286;DHT22;2665;53.112;7.358;2023-02-12T03:42:34;6.40;99.90
5286;DHT22;2665;53.112;7.358;2023-02-12T03:47:43;6.40;99.90
5286;DHT22;2665;53.112;7.358;2023-02-12T03:50:21;6.40;99.90
5286;DHT22;2665;53.112;7.358;2023-02-12T03:52:49;6.40;99.90
5286;DHT22;2665;53.112;7.358;2023-02-12T03:55:15;6.50;99.90
5286;DHT22;2665;53.112;7.358;2023-02-12T03:57:45;6.50;99.90
5286;DHT22;2665;53.112;7.358;2023-02-12T04:00:19;6.50;99.90
5286;DHT22;2665;53.112;7.358;2023-02-12T04:02:45;6.40;99.90
5286;DHT22;2665;53.112;7.358;2023-02-12T04:05:25;6.40;99.90
5286;DHT22;2665;53.112;7.358;2023-02-12T04:07:52;6.40;99.90
5286;DHT22;2665;53.112;7.358;2023-02-12T04:10:23;6.50;99.90
5286;DHT22;2665;53.112;7.358;2023-02-12T04:13:27;6.50;99.90
5286;DHT22;2665;53.112;7.358;2023-02-12T04:15:57;6.40;99.90
5286;DHT22;2665;53.112;7.358;2023-02-12T04:18:42;6.40;99.90
5286;DHT22;2665;53.112;7.358;2023-02-12T04:21:26;6.40;99.90
5286;DHT22;2665;53.112;7.358;2023-02-12T04:26:36;6.40;99.90
5286;DHT22;2665;53.112;7.358;2023-02-12T04:32:03;6.40;99.90
5286;DHT22;2665;53.112;7.358;2023-02-12T04:37:25;6.50;99.90
5286;DHT22;2665;53.112;7.358;2023-02-12T04:39:53;6.50;99.90
5286;DHT22;2665;53.112;7.358;2023-02-12T04:42:20;6.50;99.90
5286;DHT22;2665;53.112;7.358;2023-02-12T04:44:46;6.50;99.90
5286;DHT22;2665;53.112;7.358;2023-02-12T04:47:15;6.50;99.90
5286;DHT22;2665;53.112;7.358;2023-02-12T04:49:41;6.50;99.90
5286;DHT22;2665;53.112;7.358;2023-02-12T04:52:07;6.50;99.90
5286;DHT22;2665;53.112;7.358;2023-02-12T04:54:33;6.50;99.90
5286;DHT22;2665;53.112;7.358;2023-02-12T04:56:58;6.50;99.90
5286;DHT22;2665;53.112;7.358;2023-02-12T04:59:24;6.40;99.90
5286;DHT22;2665;53.112;7.358;2023-02-12T05:01:49;6.40;99.90
5286;DHT22;2665;53.112;7.358;2023-02-12T05:04:16;6.40;99.90
5286;DHT22;2665;53.112;7.358;2023-02-12T05:06:43;6.40;99.90
5286;DHT22;2665;53.112;7.358;2023-02-12T05:09:13;6.40;99.90
5286;DHT22;2665;53.112;7.358;2023-02-12T05:11:39;6.40;99.90
5286;DHT22;2665;53.112;7.358;2023-02-12T05:14:04;6.30;99.90
5286;DHT22;2665;53.112;7.358;2023-02-12T05:16:30;6.30;99.90
5286;DHT22;2665;53.112;7.358;2023-02-12T05:18:56;6.30;99.90
5286;DHT22;2665;53.112;7.358;2023-02-12T05:21:22;6.30;99.90
5286;DHT22;2665;53.112;7.358;2023-02-12T05:23:47;6.30;99.90
5286;DHT22;2665;53.112;7.358;2023-02-12T05:26:15;6.30;99.90
5286;DHT22;2665;53.112;7.358;2023-02-12T05:28:41;6.20;99.90
5286;DHT22;2665;53.112;7.358;2023-02-12T05:31:10;6.20;99.90
5286;DHT22;2665;53.112;7.358;2023-02-12T05:33:37;6.20;99.90
5286;DHT22;2665;53.112;7.358;2023-02-12T05:36:08;6.20;99.90
5286;DHT22;2665;53.112;7.358;2023-02-12T05:38:34;6.20;99.90
5286;DHT22;2665;53.112;7.358;2023-02-12T05:41:04;6.20;99.90
5286;DHT22;2665;53.112;7.358;2023-02-12T05:43:30;6.10;99.90
5286;DHT22;2665;53.112;7.358;2023-02-12T05:46:00;6.10;99.90
5286;DHT22;2665;53.112;7.358;2023-02-12T05:48:27;6.10;99.90
5286;DHT22;2665;53.112;7.358;2023-02-12T05:50:52;6.10;99.90
5286;DHT22;2665;53.112;7.358;2023-02-12T05:53:18;6.10;99.90
5286;DHT22;2665;53.112;7.358;2023-02-12T05:55:44;6.10;99.90
5286;DHT22;2665;53.112;7.358;2023-02-12T05:58:10;6.00;99.90
5286;DHT22;2665;53.112;7.358;2023-02-12T06:00:35;6.00;99.90
5286;DHT22;2665;53.112;7.358;2023-02-12T06:03:01;6.00;99.90
5286;DHT22;2665;53.112;7.358;2023-02-12T06:05:27;5.90;99.90
5286;DHT22;2665;53.112;7.358;2023-02-12T06:07:52;5.90;99.90
5286;DHT22;2665;53.112;7.358;2023-02-12T06:10:18;5.90;99.90
5286;DHT22;2665;53.112;7.358;2023-02-12T06:12:44;5.80;99.90
5286;DHT22;2665;53.112;7.358;2023-02-12T06:15:09;5.90;99.90
5286;DHT22;2665;53.112;7.358;2023-02-12T06:17:35;5.90;99.90
5286;DHT22;2665;53.112;7.358;2023-02-12T06:20:01;5.80;99.90
5286;DHT22;2665;53.112;7.358;2023-02-12T06:22:27;5.80;99.90
5286;DHT22;2665;53.112;7.358;2023-02-12T06:24:53;5.80;99.90
5286;DHT22;2665;53.112;7.358;2023-02-12T06:27:18;5.80;99.90
5286;DHT22;2665;53.112;7.358;2023-02-12T06:29:44;5.80;99.90
5286;DHT22;2665;53.112;7.358;2023-02-12T06:32:10;5.80;99.90
5286;DHT22;2665;53.112;7.358;2023-02-12T06:34:38;5.70;99.90
5286;DHT22;2665;53.112;7.358;2023-02-12T06:37:03;5.70;99.90
5286;DHT22;2665;53.112;7.358;2023-02-12T06:39:29;5.70;99.90
5286;DHT22;2665;53.112;7.358;2023-02-12T06:41:55;5.70;99.90
5286;DHT22;2665;53.112;7.358;2023-02-12T06:44:20;5.70;99.90
5286;DHT22;2665;53.112;7.358;2023-02-12T06:46:46;5.70;99.90
5286;DHT22;2665;53.112;7.358;2023-02-12T06:49:12;5.70;99.90
5286;DHT22;2665;53.112;7.358;2023-02-12T06:51:39;5.70;99.90
5286;DHT22;2665;53.112;7.358;2023-02-12T06:54:16;5.60;99.90
5286;DHT22;2665;53.112;7.358;2023-02-12T06:56:42;5.60;99.90
5286;DHT22;2665;53.112;7.358;2023-02-12T06:59:12;5.60;99.90
5286;DHT22;2665;53.112;7.358;2023-02-12T07:01:39;5.60;99.90
5286;DHT22;2665;53.112;7.358;2023-02-12T07:04:04;5.60;99.90
5286;DHT22;2665;53.112;7.358;2023-02-12T07:06:32;5.60;99.90
5286;DHT22;2665;53.112;7.358;2023-02-12T07:08:58;5.60;1.00
5286;DHT22;2665;53.112;7.358;2023-02-12T07:11:26;5.60;1.00
5286;DHT22;2665;53.112;7.358;2023-02-12T07:13:52;5.60;1.00
5286;DHT22;2665;53.112;7.358;2023-02-12T07:16:18;5.60;1.00
5286;DHT22;2665;53.112;7.358;2023-02-12T07:18:44;5.60;1.00
5286;DHT22;2665;53.112;7.358;2023-02-12T07:21:11;5.60;1.00
5286;DHT22;2665;53.112;7.358;2023-02-12T07:23:37;5.60;1.00
5286;DHT22;2665;53.112;7.358;2023-02-12T07:26:06;5.70;1.00
5286;DHT22;2665;53.112;7.358;2023-02-12T07:28:32;5.70;1.00
5286;DHT22;2665;53.112;7.358;2023-02-12T07:31:00;5.70;1.00
5286;DHT22;2665;53.112;7.358;2023-02-12T07:33:30;5.70;1.00
5286;DHT22;2665;53.112;7.358;2023-02-12T07:36:02;5.70;1.00
5286;DHT22;2665;53.112;7.358;2023-02-12T07:38:28;5.70;1.00
5286;DHT22;2665;53.112;7.358;2023-02-12T07:40:53;5.70;1.00
5286;DHT22;2665;53.112;7.358;2023-02-12T07:43:21;5.80;1.00
5286;DHT22;2665;53.112;7.358;2023-02-12T07:45:47;5.80;1.00
5286;DHT22;2665;53.112;7.358;2023-02-12T07:48:12;5.80;1.00
5286;DHT22;2665;53.112;7.358;2023-02-12T07:50:38;5.80;1.00
5286;DHT22;2665;53.112;7.358;2023-02-12T07:53:03;5.90;1.00
5286;DHT22;2665;53.112;7.358;2023-02-12T07:55:29;5.90;1.00
5286;DHT22;2665;53.112;7.358;2023-02-12T07:57:55;5.90;1.00
5286;DHT22;2665;53.112;7.358;2023-02-12T08:00:20;5.90;1.00
5286;DHT22;2665;53.112;7.358;2023-02-12T08:02:52;5.90;1.00
5286;DHT22;2665;53.112;7.358;2023-02-12T08:05:18;6.00;1.00
5286;DHT22;2665;53.112;7.358;2023-02-12T08:07:44;6.00;1.00
5286;DHT22;2665;53.112;7.358;2023-02-12T08:10:10;6.10;1.00
5286;DHT22;2665;53.112;7.358;2023-02-12T08:12:36;6.00;1.00
5286;DHT22;2665;53.112;7.358;2023-02-12T08:15:01;6.10;1.00
5286;DHT22;2665;53.112;7.358;2023-02-12T08:17:27;6.10;1.00
5286;DHT22;2665;53.112;7.358;2023-02-12T08:19:52;6.10;1.00
5286;DHT22;2665;53.112;7.358;2023-02-12T08:22:18;6.10;1.00
5286;DHT22;2665;53.112;7.358;2023-02-12T08:24:44;6.10;1.00
5286;DHT22;2665;53.112;7.358;2023-02-12T08:27:09;6.10;1.00
5286;DHT22;2665;53.112;7.358;2023-02-12T08:29:35;6.10;1.00
5286;DHT22;2665;53.112;7.358;2023-02-12T08:32:02;6.10;1.00
5286;DHT22;2665;53.112;7.358;2023-02-12T08:34:30;6.10;1.00
5286;DHT22;2665;53.112;7.358;2023-02-12T08:36:56;6.20;1.00
5286;DHT22;2665;53.112;7.358;2023-02-12T08:39:24;6.20;1.00
5286;DHT22;2665;53.112;7.358;2023-02-12T08:41:50;6.20;1.00
5286;DHT22;2665;53.112;7.358;2023-02-12T08:44:18;6.20;1.00
5286;DHT22;2665;53.112;7.358;2023-02-12T08:46:46;6.30;1.00
5286;DHT22;2665;53.112;7.358;2023-02-12T08:49:15;6.30;1.00
5286;DHT22;2665;53.112;7.358;2023-02-12T08:51:43;6.30;1.00
5286;DHT22;2665;53.112;7.358;2023-02-12T08:54:12;6.30;1.00
5286;DHT22;2665;53.112;7.358;2023-02-12T08:56:38;6.30;1.00
5286;DHT22;2665;53.112;7.358;2023-02-12T08:59:05;6.30;1.00
5286;DHT22;2665;53.112;7.358;2023-02-12T09:01:34;6.30;1.00
5286;DHT22;2665;53.112;7.358;2023-02-12T09:04:00;6.30;1.00
5286;DHT22;2665;53.112;7.358;2023-02-12T09:06:26;6.40;1.00
5286;DHT22;2665;53.112;7.358;2023-02-12T09:08:53;6.40;1.00
5286;DHT22;2665;53.112;7.358;2023-02-12T09:11:23;6.40;1.00
5286;DHT22;2665;53.112;7.358;2023-02-12T09:13:52;6.40;1.00
5286;DHT22;2665;53.112;7.358;2023-02-12T09:16:17;6.40;1.00
5286;DHT22;2665;53.112;7.358;2023-02-12T09:18:43;6.40;1.00
5286;DHT22;2665;53.112;7.358;2023-02-12T09:21:14;6.50;1.00
5286;DHT22;2665;53.112;7.358;2023-02-12T09:23:42;6.50;1.00
5286;DHT22;2665;53.112;7.358;2023-02-12T09:26:11;6.60;1.00
5286;DHT22;2665;53.112;7.358;2023-02-12T09:28:37;6.60;1.00
5286;DHT22;2665;53.112;7.358;2023-02-12T09:31:08;6.70;1.00
5286;DHT22;2665;53.112;7.358;2023-02-12T09:33:35;6.70;1.00
5286;DHT22;2665;53.112;7.358;2023-02-12T09:36:06;6.80;1.00
5286;DHT22;2665;53.112;7.358;2023-02-12T09:38:32;6.80;1.00
5286;DHT22;2665;53.112;7.358;2023-02-12T09:46:57;7.00;1.00
5286;DHT22;2665;53.112;7.358;2023-02-12T09:49:58;7.00;1.00
5286;DHT22;2665;53.112;7.358;2023-02-12T09:52:27;6.90;1.00
5286;DHT22;2665;53.112;7.358;2023-02-12T09:54:53;7.00;1.00
5286;DHT22;2665;53.112;7.358;2023-02-12T09:57:39;7.00;1.00
5286;DHT22;2665;53.112;7.358;2023-02-12T10:00:08;7.00;1.00
5286;DHT22;2665;53.112;7.358;2023-02-12T10:02:36;7.00;1.00
5286;DHT22;2665;53.112;7.358;2023-02-12T10:05:03;7.10;1.00
5286;DHT22;2665;53.112;7.358;2023-02-12T10:27:59;7.50;1.00
5286;DHT22;2665;53.112;7.358;2023-02-12T10:33:06;7.70;1.00
5286;DHT22;2665;53.112;7.358;2023-02-12T10:35:32;7.70;1.00
5286;DHT22;2665;53.112;7.358;2023-02-12T10:38:18;7.80;99.90
5286;DHT22;2665;53.112;7.358;2023-02-12T10:40:45;7.80;99.90
5286;DHT22;2665;53.112;7.358;2023-02-12T10:43:12;7.80;99.90
5286;DHT22;2665;53.112;7.358;2023-02-12T10:45:40;7.90;99.90
5286;DHT22;2665;53.112;7.358;2023-02-12T10:48:16;7.90;99.90
5286;DHT22;2665;53.112;7.358;2023-02-12T10:53:28;8.10;99.90
5286;DHT22;2665;53.112;7.358;2023-02-12T10:58:40;8.30;72.60
5286;DHT22;2665;53.112;7.358;2023-02-12T11:01:32;8.30;75.80
5286;DHT22;2665;53.112;7.358;2023-02-12T11:04:00;8.40;1.00
5286;DHT22;2665;53.112;7.358;2023-02-12T11:07:03;8.40;1.00
5286;DHT22;2665;53.112;7.358;2023-02-12T11:09:50;8.50;1.00
5286;DHT22;2665;53.112;7.358;2023-02-12T11:12:38;8.50;99.90
5286;DHT22;2665;53.112;7.358;2023-02-12T11:15:19;8.60;99.90
5286;DHT22;2665;53.112;7.358;2023-02-12T11:17:56;8.70;1.00
5286;DHT22;2665;53.112;7.358;2023-02-12T11:23:04;8.70;99.90
5286;DHT22;2665;53.112;7.358;2023-02-12T11:25:36;8.90;1.00
5286;DHT22;2665;53.112;7.358;2023-02-12T11:28:14;9.00;99.90
5286;DHT22;2665;53.112;7.358;2023-02-12T11:33:39;9.10;99.90
5286;DHT22;2665;53.112;7.358;2023-02-12T11:38:45;9.20;99.90
5286;DHT22;2665;53.112;7.358;2023-02-12T11:41:31;9.30;1.00
5286;DHT22;2665;53.112;7.358;2023-02-12T11:44:42;9.60;1.00
5286;DHT22;2665;53.112;7.358;2023-02-12T11:47:17;9.80;3.70
5286;DHT22;2665;53.112;7.358;2023-02-12T11:49:50;10.10;1.00
5286;DHT22;2665;53.112;7.358;2023-02-12T11:52:24;10.40;1.00
5286;DHT22;2665;53.112;7.358;2023-02-12T11:54:55;10.50;1.00
5286;DHT22;2665;53.112;7.358;2023-02-12T12:00:04;10.20;51.10
5286;DHT22;2665;53.112;7.358;2023-02-12T12:02:38;10.20;99.90
5286;DHT22;2665;53.112;7.358;2023-02-12T12:05:11;10.20;1.00
5286;DHT22;2665;53.112;7.358;2023-02-12T12:07:40;10.10;99.90
5286;DHT22;2665;53.112;7.358;2023-02-12T12:10:14;10.10;99.90
5286;DHT22;2665;53.112;7.358;2023-02-12T12:12:48;10.00;99.90
5286;DHT22;2665;53.112;7.358;2023-02-12T12:15:26;9.90;99.90
5286;DHT22;2665;53.112;7.358;2023-02-12T12:21:37;10.00;99.90
5286;DHT22;2665;53.112;7.358;2023-02-12T12:24:30;10.90;99.90
5286;DHT22;2665;53.112;7.358;2023-02-12T12:27:10;11.40;1.00
